createdAt,value
2023-05-20T00:01:40.875Z,14.78
2023-05-20T00:06:44.150Z,14.73
2023-05-20T00:11:47.356Z,14.77
2023-05-20T00:16:52.723Z,14.73
2023-05-20T00:21:58.180Z,14.68
2023-05-20T00:27:02.902Z,14.63
2023-05-20T00:32:06.484Z,14.65
2023-05-20T00:37:10.416Z,14.63
2023-05-20T00:42:20.697Z,14.54
2023-05-20T00:47:29.323Z,14.51
2023-05-20T00:52:33.742Z,14.48
2023-05-20T00:57:37.209Z,14.45
2023-05-20T01:02:40.510Z,14.46
2023-05-20T01:07:44.291Z,14.44
2023-05-20T01:12:54.849Z,14.43
2023-05-20T01:18:02.069Z,14.41
2023-05-20T01:23:05.362Z,14.43
2023-05-20T01:28:09.772Z,14.41
2023-05-20T01:33:15.152Z,14.36
2023-05-20T01:38:19.924Z,14.30
2023-05-20T01:43:24.681Z,14.31
2023-05-20T01:48:28.002Z,14.28
2023-05-20T01:53:31.638Z,14.22
2023-05-20T01:58:35.040Z,14.22
2023-05-20T02:03:48.636Z,14.26
2023-05-20T02:08:51.884Z,14.25
2023-05-20T02:13:55.633Z,14.19
2023-05-20T02:18:59.088Z,14.11
2023-05-20T02:24:02.370Z,14.07
2023-05-20T02:29:06.068Z,14.05
2023-05-20T02:34:09.344Z,14.02
2023-05-20T02:39:12.923Z,13.96
2023-05-20T02:44:17.028Z,13.96
2023-05-20T02:49:20.542Z,13.98
2023-05-20T02:54:23.777Z,14.05
2023-05-20T02:59:27.153Z,14.03
2023-05-20T03:04:32.157Z,14.01
2023-05-20T03:09:35.885Z,14.05
2023-05-20T03:14:39.055Z,14.09
2023-05-20T03:19:42.518Z,14.13
2023-05-20T03:24:46.587Z,14.11
2023-05-20T03:29:49.880Z,14.11
2023-05-20T03:34:54.754Z,14.17
2023-05-20T03:39:58.270Z,14.14
2023-05-20T03:45:01.774Z,14.18
2023-05-20T03:50:08.381Z,14.20
2023-05-20T03:55:12.045Z,14.28
2023-05-20T04:00:17.055Z,14.37
2023-05-20T04:05:20.295Z,14.46
2023-05-20T04:10:23.999Z,14.51
2023-05-20T04:15:30.021Z,14.57
2023-05-20T04:20:34.433Z,14.73
2023-05-20T04:25:39.062Z,14.86
2023-05-20T04:30:45.302Z,14.95
2023-05-20T04:35:49.398Z,14.99
2023-05-20T04:40:52.794Z,15.01
2023-05-20T04:46:06.219Z,15.09
2023-05-20T04:51:10.961Z,15.17
2023-05-20T04:56:15.549Z,15.25
2023-05-20T05:01:19.514Z,15.29
2023-05-20T05:06:22.984Z,15.39
2023-05-20T05:11:26.626Z,15.47
2023-05-20T05:16:30.069Z,15.52
2023-05-20T05:21:33.300Z,15.68
2023-05-20T05:26:36.664Z,15.86
2023-05-20T05:31:40.092Z,15.98
2023-05-20T05:36:43.908Z,16.06
2023-05-20T05:41:47.595Z,16.08
2023-05-20T05:46:51.163Z,16.12
2023-05-20T05:51:55.745Z,16.16
2023-05-20T05:56:59.631Z,16.25
2023-05-20T06:02:04.912Z,16.38
2023-05-20T06:07:08.446Z,16.57
2023-05-20T06:12:13.962Z,16.73
2023-05-20T06:17:18.111Z,16.91
2023-05-20T06:22:24.855Z,17.13
2023-05-20T06:27:37.930Z,17.29
2023-05-20T06:32:43.636Z,17.49
2023-05-20T06:37:47.583Z,17.78
2023-05-20T06:42:51.075Z,17.90
2023-05-20T06:47:54.857Z,18.04
2023-05-20T06:52:58.261Z,18.34
2023-05-20T06:58:02.129Z,18.66
2023-05-20T07:03:05.975Z,18.93
2023-05-20T07:08:09.409Z,19.27
2023-05-20T07:13:12.747Z,19.49
2023-05-20T07:18:16.461Z,19.59
2023-05-20T07:23:24.409Z,19.83
2023-05-20T07:28:29.614Z,19.92
2023-05-20T07:33:33.166Z,20.11
2023-05-20T07:38:36.472Z,20.32
2023-05-20T07:43:43.228Z,20.49
2023-05-20T07:48:47.050Z,20.53
2023-05-20T07:53:51.812Z,20.60
2023-05-20T07:58:58.463Z,20.77
2023-05-20T08:04:04.840Z,20.90
2023-05-20T08:09:11.817Z,20.90
2023-05-20T08:14:17.440Z,21.07
2023-05-20T08:19:23.436Z,21.28
2023-05-20T08:24:26.901Z,21.44
2023-05-20T08:29:31.304Z,21.57
2023-05-20T08:34:34.783Z,21.69
2023-05-20T08:39:37.981Z,21.88
2023-05-20T08:44:42.766Z,21.93
2023-05-20T08:49:46.361Z,21.90
2023-05-20T08:54:51.779Z,21.96
2023-05-20T08:59:57.480Z,22.08
2023-05-20T09:05:01.111Z,22.21
2023-05-20T09:10:05.496Z,22.35
2023-05-20T09:15:09.757Z,22.51
2023-05-20T09:20:14.266Z,22.66
2023-05-20T09:25:23.166Z,22.77
2023-05-20T09:30:27.371Z,22.75
2023-05-20T09:35:30.879Z,22.85
2023-05-20T09:40:34.087Z,23.11
2023-05-20T09:45:38.789Z,23.20
2023-05-20T09:50:42.800Z,23.17
2023-05-20T09:55:46.961Z,23.32
2023-05-20T10:00:50.388Z,23.51
2023-05-20T10:06:31.775Z,23.51
2023-05-20T10:11:46.298Z,23.52
2023-05-20T10:17:08.166Z,23.57
2023-05-20T10:22:14.948Z,23.54
2023-05-20T10:27:18.285Z,23.68
2023-05-20T10:32:29.488Z,23.87
2023-05-20T10:37:40.734Z,23.92
2023-05-20T10:42:48.772Z,23.99
2023-05-20T10:47:59.182Z,24.03
2023-05-20T10:53:09.434Z,23.94
2023-05-20T10:58:16.586Z,24.02
2023-05-20T11:03:22.808Z,24.05
2023-05-20T11:08:31.701Z,24.15
2023-05-20T11:13:34.797Z,24.19
2023-05-20T11:18:38.035Z,24.15
2023-05-20T11:23:42.282Z,24.24
2023-05-20T11:28:46.506Z,24.43
2023-05-20T11:33:50.979Z,24.57
2023-05-20T11:38:54.757Z,24.68
2023-05-20T11:44:01.723Z,24.60
2023-05-20T11:49:07.687Z,24.68
2023-05-20T11:54:11.518Z,24.76
2023-05-20T11:59:14.958Z,24.60
2023-05-20T12:04:18.799Z,24.59
2023-05-20T12:09:22.727Z,24.67
2023-05-20T12:14:26.179Z,24.73
2023-05-20T12:19:29.482Z,24.87
2023-05-20T12:24:33.442Z,24.95
2023-05-20T12:29:37.195Z,24.89
2023-05-20T12:34:40.326Z,24.84
2023-05-20T12:39:43.350Z,24.90
2023-05-20T12:44:46.516Z,25.03
2023-05-20T12:49:49.773Z,25.08
2023-05-20T12:54:56.547Z,25.09
2023-05-20T12:59:59.666Z,25.00
2023-05-20T13:05:02.836Z,24.91
2023-05-20T13:10:07.710Z,25.07
2023-05-20T13:15:12.770Z,25.24
2023-05-20T13:20:19.675Z,25.33
2023-05-20T13:25:23.012Z,25.41
2023-05-20T13:30:26.212Z,25.35
2023-05-20T13:35:29.399Z,25.25
2023-05-20T13:40:32.696Z,25.15
2023-05-20T13:45:36.196Z,25.10
2023-05-20T13:50:39.424Z,24.88
2023-05-20T13:55:42.717Z,24.74
2023-05-20T14:00:46.354Z,24.64
2023-05-20T14:05:49.696Z,24.55
2023-05-20T14:10:56.312Z,24.59
2023-05-20T14:15:59.618Z,24.75
2023-05-20T14:21:02.973Z,24.89
2023-05-20T14:26:06.384Z,25.01
2023-05-20T14:31:10.916Z,25.05
2023-05-20T14:36:14.332Z,25.06
2023-05-20T14:41:17.692Z,25.05
2023-05-20T14:46:21.357Z,25.02
2023-05-20T14:51:24.703Z,24.95
2023-05-20T14:56:28.221Z,24.94
2023-05-20T15:01:31.499Z,24.94
2023-05-20T15:06:36.147Z,24.77
2023-05-20T15:11:39.437Z,24.66
2023-05-20T15:16:44.608Z,24.57
2023-05-20T15:21:49.724Z,24.45
2023-05-20T15:26:54.305Z,24.39
2023-05-20T15:31:57.555Z,24.31
2023-05-20T15:37:00.740Z,24.22
2023-05-20T15:42:04.243Z,24.15
2023-05-20T15:47:07.469Z,24.14
2023-05-20T15:52:10.852Z,24.14
2023-05-20T15:57:13.934Z,24.16
2023-05-20T16:02:17.228Z,24.19
2023-05-20T16:07:20.737Z,24.17
2023-05-20T16:12:24.336Z,24.23
2023-05-20T16:17:27.667Z,24.28
2023-05-20T16:22:30.933Z,24.31
2023-05-20T16:27:34.574Z,24.30
2023-05-20T16:32:37.872Z,24.28
2023-05-20T16:37:41.158Z,24.21
2023-05-20T16:42:44.918Z,24.07
2023-05-20T16:47:48.153Z,23.92
2023-05-20T16:52:51.638Z,23.82
2023-05-20T16:57:54.853Z,23.73
2023-05-20T17:02:58.444Z,23.63
2023-05-20T17:08:02.002Z,23.56
2023-05-20T17:13:05.491Z,23.46
2023-05-20T17:18:08.935Z,23.34
2023-05-20T17:23:12.260Z,23.27
2023-05-20T17:28:15.759Z,23.16
2023-05-20T17:33:24.705Z,23.07
2023-05-20T17:38:28.264Z,23.01
2023-05-20T17:43:31.443Z,22.96
2023-05-20T17:48:34.547Z,22.89
2023-05-20T17:53:37.728Z,22.79
2023-05-20T17:58:41.057Z,22.67
2023-05-20T18:03:44.539Z,22.58
2023-05-20T18:08:48.062Z,22.44
2023-05-20T18:13:51.638Z,22.32
2023-05-20T18:18:55.700Z,22.23
2023-05-20T18:23:59.186Z,22.12
2023-05-20T18:29:02.497Z,22.00
2023-05-20T18:34:06.340Z,21.88
2023-05-20T18:39:10.280Z,21.77
2023-05-20T18:44:17.987Z,21.65
2023-05-20T18:49:21.418Z,21.52
2023-05-20T18:54:24.600Z,21.40
2023-05-20T18:59:27.982Z,21.25
2023-05-20T19:04:31.738Z,21.07
2023-05-20T19:09:34.833Z,20.90
2023-05-20T19:14:39.493Z,20.76
2023-05-20T19:19:43.127Z,20.64
2023-05-20T19:24:46.514Z,20.51
2023-05-20T19:29:49.626Z,20.38
2023-05-20T19:34:52.767Z,20.25
2023-05-20T19:39:56.424Z,20.15
2023-05-20T19:44:59.994Z,20.00
2023-05-20T19:50:04.349Z,19.86
2023-05-20T19:55:08.632Z,19.74
2023-05-20T20:00:12.975Z,19.68
2023-05-20T20:05:16.326Z,19.69
2023-05-20T20:10:20.025Z,19.65
2023-05-20T20:15:24.307Z,19.57
2023-05-20T20:20:27.874Z,19.52
2023-05-20T20:25:34.301Z,19.46
2023-05-20T20:30:38.354Z,19.36
2023-05-20T20:35:42.210Z,19.26
2023-05-20T20:40:46.256Z,19.14
2023-05-20T20:45:53.263Z,19.06
2023-05-20T20:50:56.763Z,18.96
2023-05-20T20:55:59.949Z,18.88
2023-05-20T21:01:04.008Z,18.82
2023-05-20T21:06:08.138Z,18.76
2023-05-20T21:11:11.584Z,18.69
2023-05-20T21:16:15.155Z,18.61
2023-05-20T21:21:20.779Z,18.57
2023-05-20T21:26:25.845Z,18.53
2023-05-20T21:31:29.233Z,18.43
2023-05-20T21:36:32.783Z,18.28
2023-05-20T21:41:36.221Z,18.15
2023-05-20T21:46:39.728Z,18.00
2023-05-20T21:51:43.091Z,17.86
2023-05-20T21:56:46.280Z,17.72
2023-05-20T22:01:51.001Z,17.62
2023-05-20T22:06:56.304Z,17.51
2023-05-20T22:12:00.044Z,17.52
2023-05-20T22:17:03.313Z,17.54
2023-05-20T22:22:06.710Z,17.50
2023-05-20T22:27:09.916Z,17.46
2023-05-20T22:32:13.164Z,17.40
2023-05-20T22:37:16.976Z,17.34
2023-05-20T22:42:20.115Z,17.25
2023-05-20T22:47:23.418Z,17.18
2023-05-20T22:52:29.813Z,17.08
2023-05-20T22:57:33.182Z,16.99
2023-05-20T23:02:36.465Z,16.92
2023-05-20T23:07:39.728Z,16.82
2023-05-20T23:12:42.970Z,16.71
2023-05-20T23:17:46.240Z,16.59
2023-05-20T23:22:49.833Z,16.50
2023-05-20T23:27:53.085Z,16.46
2023-05-20T23:32:57.965Z,16.44
2023-05-20T23:38:01.616Z,16.47
2023-05-20T23:43:04.860Z,16.50
2023-05-20T23:48:11.507Z,16.46
2023-05-20T23:53:14.822Z,16.38
2023-05-20T23:58:18.160Z,16.29
